Terminal Aerodrome Forecast
Issued by NWS

Home | Current Version | Previous Version | Graphics & Text | Print | Product List | Glossary On
Versions: 1 2 3 4 5 6 7 8 9 10 11 12 13 14 15 16 17 18 19
000
FTUS43 KLSX 021836 AAA
TAFSUS
TAF AMD
KSUS 021836Z 0219/0318 32007KT P6SM VCSH OVC035
      TEMPO 0219/0221 OVC030
     FM030200 VRB03KT P6SM BKN040
     FM031500 33005KT P6SM BKN040=

USA.gov is the U.S. government's official web portal to all federal, state and local government web resources and services.